createdAt,value
2023-05-10T00:00:14.492Z,46.68
2023-05-10T00:03:02.761Z,47.04
2023-05-10T00:05:30.717Z,47.11
2023-05-10T00:07:58.589Z,47.12
2023-05-10T00:10:26.500Z,46.96
2023-05-10T00:12:54.614Z,47.29
2023-05-10T00:15:22.748Z,47.39
2023-05-10T00:17:50.821Z,47.58
2023-05-10T00:20:19.340Z,47.53
2023-05-10T00:22:47.513Z,47.62
2023-05-10T00:25:15.445Z,47.77
2023-05-10T00:27:43.323Z,47.74
2023-05-10T00:30:12.835Z,47.84
2023-05-10T00:32:40.737Z,47.64
2023-05-10T00:35:09.166Z,47.99
2023-05-10T00:37:36.979Z,48.13
2023-05-10T00:40:06.099Z,48.05
2023-05-10T00:42:34.514Z,47.93
2023-05-10T00:45:02.727Z,48.10
2023-05-10T00:47:32.645Z,48.19
2023-05-10T00:50:01.822Z,48.35
2023-05-10T00:52:31.298Z,48.57
2023-05-10T00:55:01.279Z,48.46
2023-05-10T00:57:29.707Z,48.36
2023-05-10T00:59:58.881Z,48.54
2023-05-10T01:02:26.811Z,48.48
2023-05-10T01:04:55.551Z,48.56
2023-05-10T01:07:23.417Z,48.66
2023-05-10T01:09:51.415Z,48.77
2023-05-10T01:12:19.528Z,48.79
2023-05-10T01:14:48.146Z,49.01
2023-05-10T01:17:17.368Z,49.04
2023-05-10T01:19:45.437Z,49.12
2023-05-10T01:23:10.704Z,49.19
2023-05-10T01:26:07.499Z,49.10
2023-05-10T01:29:13.222Z,49.26
2023-05-10T01:32:08.027Z,49.23
2023-05-10T01:34:43.727Z,49.20
2023-05-10T01:37:22.008Z,49.27
2023-05-10T01:40:16.360Z,49.57
2023-05-10T01:42:51.620Z,49.29
2023-05-10T01:45:42.819Z,49.47
2023-05-10T01:48:12.030Z,49.39
2023-05-10T01:50:46.434Z,49.49
2023-05-10T01:53:19.947Z,49.76
2023-05-10T01:55:53.709Z,49.60
2023-05-10T01:58:26.289Z,49.91
2023-05-10T02:00:55.117Z,49.79
2023-05-10T02:03:26.003Z,49.93
2023-05-10T02:05:57.215Z,50.08
2023-05-10T02:08:26.396Z,50.42
2023-05-10T02:10:57.874Z,50.24
2023-05-10T02:13:28.578Z,50.43
2023-05-10T02:15:58.687Z,50.51
2023-05-10T02:18:28.746Z,50.72
2023-05-10T02:20:59.140Z,50.89
2023-05-10T02:23:27.590Z,50.78
2023-05-10T02:25:58.075Z,50.98
2023-05-10T02:28:28.446Z,51.39
2023-05-10T02:30:57.856Z,51.03
2023-05-10T02:33:27.671Z,51.20
2023-05-10T02:35:56.731Z,51.42
2023-05-10T02:38:26.827Z,51.29
2023-05-10T02:40:55.660Z,51.38
2023-05-10T02:43:25.626Z,51.46
2023-05-10T02:45:53.716Z,51.50
2023-05-10T02:48:21.756Z,51.45
2023-05-10T02:50:53.530Z,51.41
2023-05-10T02:53:32.996Z,51.42
2023-05-10T02:56:08.190Z,51.41
2023-05-10T02:58:36.653Z,51.63
2023-05-10T03:01:04.976Z,51.55
2023-05-10T03:03:33.141Z,51.55
2023-05-10T03:06:01.414Z,51.60
2023-05-10T03:08:30.606Z,51.55
2023-05-10T03:11:40.851Z,51.55
2023-05-10T03:14:30.513Z,51.71
2023-05-10T03:17:23.344Z,51.65
2023-05-10T03:19:56.811Z,51.91
2023-05-10T03:22:31.683Z,51.95
2023-05-10T03:25:06.820Z,52.08
2023-05-10T03:27:37.566Z,52.17
2023-05-10T03:30:12.116Z,52.25
2023-05-10T03:32:40.928Z,52.25
2023-05-10T03:35:14.254Z,52.33
2023-05-10T03:37:42.530Z,52.41
2023-05-10T03:40:10.628Z,52.42
2023-05-10T03:42:40.001Z,52.34
2023-05-10T03:45:08.795Z,52.24
2023-05-10T03:47:36.856Z,52.27
2023-05-10T03:50:06.021Z,52.31
2023-05-10T03:52:34.492Z,52.09
2023-05-10T03:55:03.985Z,52.26
2023-05-10T03:57:32.012Z,52.36
2023-05-10T03:59:59.988Z,52.36
2023-05-10T04:02:28.255Z,52.59
2023-05-10T04:04:56.378Z,52.51
2023-05-10T04:07:24.335Z,52.55
2023-05-10T04:09:52.206Z,52.40
2023-05-10T04:12:20.032Z,52.34
2023-05-10T04:14:47.878Z,52.39
2023-05-10T04:17:15.784Z,52.48
2023-05-10T04:19:43.627Z,52.29
2023-05-10T04:22:11.914Z,52.34
2023-05-10T04:24:39.796Z,52.42
2023-05-10T04:27:07.643Z,52.23
2023-05-10T04:29:35.462Z,52.27
2023-05-10T04:32:04.697Z,52.34
2023-05-10T04:34:35.268Z,52.28
2023-05-10T04:37:03.166Z,52.23
2023-05-10T04:39:31.061Z,52.07
2023-05-10T04:41:58.969Z,51.92
2023-05-10T04:44:26.800Z,51.69
2023-05-10T04:46:54.663Z,51.61
2023-05-10T04:49:22.864Z,51.29
2023-05-10T04:51:50.762Z,51.00
2023-05-10T04:54:18.664Z,51.07
2023-05-10T04:56:46.838Z,50.80
2023-05-10T04:59:15.297Z,50.67
2023-05-10T05:01:43.234Z,50.62
2023-05-10T05:04:11.387Z,50.56
2023-05-10T05:06:39.292Z,50.40
2023-05-10T05:09:07.156Z,50.35
2023-05-10T05:11:35.009Z,50.04
2023-05-10T05:14:02.970Z,49.73
2023-05-10T05:16:32.597Z,49.45
2023-05-10T05:19:00.985Z,49.52
2023-05-10T05:21:29.940Z,49.65
2023-05-10T05:23:57.787Z,49.83
2023-05-10T05:26:25.805Z,50.00
2023-05-10T05:28:55.608Z,50.17
2023-05-10T05:31:23.604Z,50.24
2023-05-10T05:33:51.513Z,50.19
2023-05-10T05:36:19.464Z,50.20
2023-05-10T05:38:47.353Z,49.96
2023-05-10T05:41:15.182Z,49.57
2023-05-10T05:43:43.164Z,49.17
2023-05-10T05:46:11.179Z,48.98
2023-05-10T05:48:39.118Z,48.53
2023-05-10T05:51:07.429Z,48.27
2023-05-10T05:53:35.530Z,47.81
2023-05-10T05:56:03.635Z,47.40
2023-05-10T05:58:31.501Z,47.03
2023-05-10T06:00:59.395Z,46.56
2023-05-10T06:03:27.367Z,46.08
2023-05-10T06:05:55.327Z,45.77
2023-05-10T06:08:23.574Z,45.47
2023-05-10T06:10:51.470Z,45.22
2023-05-10T06:13:19.389Z,44.58
2023-05-10T06:15:47.365Z,44.38
2023-05-10T06:18:15.386Z,44.03
2023-05-10T06:20:44.050Z,43.52
2023-05-10T06:23:12.108Z,42.43
2023-05-10T06:25:40.279Z,41.37
2023-05-10T06:28:08.229Z,41.36
2023-05-10T06:30:37.615Z,41.31
2023-05-10T06:33:05.896Z,41.33
2023-05-10T06:35:34.611Z,40.60
2023-05-10T06:38:02.597Z,39.75
2023-05-10T06:40:30.517Z,39.46
2023-05-10T06:42:58.440Z,39.27
2023-05-10T06:45:26.372Z,39.69
2023-05-10T06:47:54.558Z,39.91
2023-05-10T06:50:22.489Z,40.27
2023-05-10T06:52:52.310Z,39.39
2023-05-10T06:55:21.126Z,39.33
2023-05-10T06:57:48.959Z,38.84
2023-05-10T07:00:17.782Z,38.28
2023-05-10T07:02:46.312Z,38.16
2023-05-10T07:05:15.272Z,37.58
2023-05-10T07:07:43.462Z,37.45
2023-05-10T07:10:11.615Z,36.93
2023-05-10T07:12:39.721Z,36.41
2023-05-10T07:15:08.467Z,36.10
2023-05-10T07:17:36.465Z,35.96
2023-05-10T07:20:04.836Z,35.51
2023-05-10T07:22:32.881Z,35.14
2023-05-10T07:25:00.841Z,34.85
2023-05-10T07:27:28.686Z,34.03
2023-05-10T07:29:57.595Z,33.95
2023-05-10T07:32:25.599Z,33.65
2023-05-10T07:34:53.749Z,33.75
2023-05-10T07:37:21.695Z,33.54
2023-05-10T07:39:49.526Z,33.50
2023-05-10T07:42:17.346Z,33.45
2023-05-10T07:44:45.189Z,32.95
2023-05-10T07:47:13.054Z,32.84
2023-05-10T07:49:41.016Z,32.53
2023-05-10T07:52:09.005Z,32.06
2023-05-10T07:54:37.086Z,31.88
2023-05-10T07:57:04.967Z,30.33
2023-05-10T07:59:34.101Z,29.77
2023-05-10T08:02:02.017Z,29.56
2023-05-10T08:04:29.970Z,29.21
2023-05-10T08:06:57.841Z,28.81
2023-05-10T08:09:25.826Z,28.86
2023-05-10T08:11:53.868Z,29.11
2023-05-10T08:14:21.721Z,28.87
2023-05-10T08:16:49.569Z,28.71
2023-05-10T08:19:20.132Z,28.00
2023-05-10T08:21:48.796Z,28.44
2023-05-10T08:24:16.997Z,27.80
2023-05-10T08:26:44.958Z,27.52
2023-05-10T08:29:12.861Z,27.18
2023-05-10T08:31:40.850Z,27.32
2023-05-10T08:34:09.512Z,28.05
2023-05-10T08:36:39.172Z,27.73
2023-05-10T08:39:13.544Z,27.22
2023-05-10T08:41:51.472Z,27.26
2023-05-10T08:44:20.318Z,27.50
2023-05-10T08:46:54.253Z,27.78
2023-05-10T08:49:22.826Z,27.66
2023-05-10T08:51:55.919Z,27.81
2023-05-10T08:54:24.445Z,28.51
2023-05-10T08:56:54.384Z,27.83
2023-05-10T08:59:22.632Z,28.35
2023-05-10T09:01:52.464Z,27.27
2023-05-10T09:04:22.225Z,26.82
2023-05-10T09:06:50.496Z,26.70
2023-05-10T09:09:20.796Z,26.74
2023-05-10T09:11:49.259Z,26.63
2023-05-10T09:14:18.531Z,27.28
2023-05-10T09:16:47.908Z,27.82
2023-05-10T09:19:15.925Z,27.02
2023-05-10T09:21:44.452Z,25.91
2023-05-10T09:24:13.285Z,26.96
2023-05-10T09:26:50.933Z,27.10
2023-05-10T09:29:19.084Z,26.52
2023-05-10T09:31:47.866Z,25.50
2023-05-10T09:34:30.529Z,25.70
2023-05-10T09:37:05.450Z,25.96
2023-05-10T09:39:37.236Z,25.14
2023-05-10T09:42:10.096Z,25.43
2023-05-10T09:44:39.163Z,26.32
2023-05-10T09:47:07.001Z,25.55
2023-05-10T09:49:35.904Z,25.26
2023-05-10T09:52:05.545Z,25.37
2023-05-10T09:54:34.732Z,25.09
2023-05-10T09:57:02.603Z,25.16
2023-05-10T09:59:30.658Z,25.24
2023-05-10T10:02:00.708Z,25.02
2023-05-10T10:04:29.604Z,25.02
2023-05-10T10:07:06.060Z,24.58
2023-05-10T10:09:35.468Z,24.63
2023-05-10T10:12:04.904Z,24.92
2023-05-10T10:14:33.052Z,24.83
2023-05-10T10:19:34.689Z,24.24
2023-05-10T10:22:02.502Z,24.47
2023-05-10T10:24:30.466Z,24.91
2023-05-10T10:27:06.441Z,24.57
2023-05-10T10:29:49.183Z,23.70
2023-05-10T10:32:31.356Z,23.25
2023-05-10T10:35:00.229Z,23.18
2023-05-10T10:37:45.484Z,23.38
2023-05-10T10:40:33.584Z,23.73
2023-05-10T10:43:27.844Z,24.18
2023-05-10T10:46:15.184Z,23.04
2023-05-10T10:48:49.597Z,24.10
2023-05-10T10:51:17.661Z,24.55
2023-05-10T10:53:45.740Z,25.55
2023-05-10T10:56:16.388Z,25.33
2023-05-10T10:58:54.831Z,25.51
2023-05-10T11:01:22.947Z,24.52
2023-05-10T11:03:59.973Z,22.97
2023-05-10T11:06:36.165Z,23.19
2023-05-10T11:09:12.588Z,23.56
2023-05-10T11:11:53.083Z,24.05
2023-05-10T11:14:23.503Z,23.92
2023-05-10T11:16:52.157Z,23.98
2023-05-10T11:19:20.628Z,23.98
2023-05-10T11:22:12.733Z,23.32
2023-05-10T11:24:40.735Z,23.22
2023-05-10T11:27:09.585Z,23.66
2023-05-10T11:29:37.529Z,23.68
2023-05-10T11:32:09.152Z,23.03
2023-05-10T11:34:37.137Z,23.25
2023-05-10T11:37:05.005Z,23.48
2023-05-10T11:39:34.593Z,23.86
2023-05-10T11:42:02.664Z,23.51
2023-05-10T11:44:32.494Z,23.56
2023-05-10T11:47:01.811Z,23.69
2023-05-10T11:49:29.975Z,23.41
2023-05-10T11:52:08.339Z,23.29
2023-05-10T11:54:36.626Z,22.91
2023-05-10T11:57:05.512Z,22.92
2023-05-10T11:59:33.569Z,23.14
2023-05-10T12:02:01.862Z,23.63
2023-05-10T12:04:30.843Z,23.65
2023-05-10T12:06:59.054Z,23.49
2023-05-10T12:09:39.434Z,23.62
2023-05-10T12:12:11.191Z,23.59
2023-05-10T12:14:39.258Z,23.88
2023-05-10T12:17:07.214Z,23.91
2023-05-10T12:19:39.719Z,24.47
2023-05-10T12:22:07.629Z,24.26
2023-05-10T12:24:36.634Z,24.67
2023-05-10T12:27:09.615Z,24.92
2023-05-10T12:29:37.732Z,24.93
2023-05-10T12:32:05.664Z,24.96
2023-05-10T12:34:36.459Z,25.18
2023-05-10T12:37:05.147Z,25.14
2023-05-10T12:39:44.754Z,25.32
2023-05-10T12:42:15.082Z,25.76
2023-05-10T12:44:43.076Z,25.83
2023-05-10T12:47:12.024Z,25.83
2023-05-10T12:49:39.876Z,25.80
2023-05-10T12:52:07.796Z,25.80
2023-05-10T12:54:36.223Z,25.88
2023-05-10T12:57:04.067Z,25.82
2023-05-10T12:59:32.064Z,25.89
2023-05-10T13:01:59.985Z,26.04
2023-05-10T13:04:27.959Z,26.28
2023-05-10T13:06:59.813Z,26.30
2023-05-10T13:09:29.597Z,26.64
2023-05-10T13:11:57.514Z,26.52
2023-05-10T13:14:25.823Z,26.26
2023-05-10T13:16:53.833Z,26.45
2023-05-10T13:19:21.888Z,26.65
2023-05-10T13:21:49.859Z,26.62
2023-05-10T13:24:18.617Z,26.34
2023-05-10T13:26:46.592Z,26.08
2023-05-10T13:29:14.529Z,26.16
2023-05-10T13:31:42.576Z,26.11
2023-05-10T13:34:10.758Z,26.18
2023-05-10T13:36:39.209Z,26.15
2023-05-10T13:39:07.428Z,26.03
2023-05-10T13:41:35.462Z,26.15
2023-05-10T13:44:03.438Z,26.09
2023-05-10T13:46:32.059Z,26.31
2023-05-10T13:49:00.056Z,26.77
2023-05-10T13:51:27.934Z,26.73
2023-05-10T13:53:55.787Z,26.57
2023-05-10T13:56:23.700Z,26.48
2023-05-10T13:58:51.642Z,26.77
2023-05-10T14:01:19.578Z,26.63
2023-05-10T14:03:47.673Z,26.45
2023-05-10T14:06:15.743Z,26.67
2023-05-10T14:08:43.657Z,26.75
2023-05-10T14:11:11.693Z,26.77
2023-05-10T14:13:39.611Z,26.28
2023-05-10T14:16:07.828Z,26.52
2023-05-10T14:18:35.759Z,26.53
2023-05-10T14:21:04.590Z,26.79
2023-05-10T14:23:32.400Z,26.33
2023-05-10T14:26:00.245Z,26.60
2023-05-10T14:28:28.107Z,26.75
2023-05-10T14:30:56.193Z,27.03
2023-05-10T14:33:24.081Z,26.84
2023-05-10T14:35:52.179Z,26.82
2023-05-10T14:38:20.916Z,26.33
2023-05-10T14:40:49.032Z,26.16
2023-05-10T14:43:17.364Z,26.26
2023-05-10T14:45:46.032Z,26.25
2023-05-10T14:48:16.513Z,26.38
2023-05-10T14:50:45.299Z,26.50
2023-05-10T14:53:13.130Z,26.70
2023-05-10T14:55:41.040Z,26.97
2023-05-10T14:58:08.964Z,26.90
2023-05-10T15:00:36.842Z,27.05
2023-05-10T15:03:05.353Z,27.14
2023-05-10T15:05:33.850Z,27.44
2023-05-10T15:08:02.174Z,27.46
2023-05-10T15:10:30.872Z,27.58
2023-05-10T15:13:00.222Z,27.76
2023-05-10T15:15:28.146Z,27.92
2023-05-10T15:17:55.997Z,27.97
2023-05-10T15:20:23.938Z,28.04
2023-05-10T15:22:51.994Z,28.02
2023-05-10T15:25:21.066Z,28.07
2023-05-10T15:27:49.006Z,27.95
2023-05-10T15:30:16.898Z,28.13
2023-05-10T15:32:44.804Z,28.24
2023-05-10T15:35:12.803Z,28.57
2023-05-10T15:37:40.647Z,28.72
2023-05-10T15:40:08.905Z,28.62
2023-05-10T15:42:49.862Z,28.61
2023-05-10T15:45:18.237Z,28.93
2023-05-10T15:47:46.487Z,28.87
2023-05-10T15:50:16.162Z,28.89
2023-05-10T15:52:44.048Z,29.06
2023-05-10T15:55:15.088Z,29.00
2023-05-10T15:57:45.087Z,29.07
2023-05-10T16:00:13.839Z,29.06
2023-05-10T16:02:42.525Z,28.96
2023-05-10T16:05:11.054Z,28.96
2023-05-10T16:07:40.435Z,29.06
2023-05-10T16:10:10.618Z,28.99
2023-05-10T16:12:39.133Z,29.01
2023-05-10T16:15:07.684Z,29.18
2023-05-10T16:17:35.646Z,29.46
2023-05-10T16:20:03.979Z,29.48
2023-05-10T16:22:31.924Z,29.67
2023-05-10T16:25:00.056Z,29.57
2023-05-10T16:27:30.475Z,29.87
2023-05-10T16:29:58.344Z,29.70
2023-05-10T16:32:26.301Z,29.86
2023-05-10T16:34:54.219Z,30.09
2023-05-10T16:37:22.185Z,30.24
2023-05-10T16:39:50.069Z,30.29
2023-05-10T16:42:18.241Z,30.45
2023-05-10T16:44:46.200Z,30.58
2023-05-10T16:47:14.056Z,30.67
2023-05-10T16:49:42.342Z,31.01
2023-05-10T16:52:10.250Z,30.82
2023-05-10T16:54:38.157Z,31.06
2023-05-10T16:57:06.626Z,31.15
2023-05-10T16:59:34.679Z,30.92
2023-05-10T17:02:02.627Z,31.12
2023-05-10T17:04:30.898Z,31.02
2023-05-10T17:06:58.936Z,31.00
2023-05-10T17:09:26.804Z,31.14
2023-05-10T17:11:54.669Z,31.30
2023-05-10T17:14:22.631Z,31.38
2023-05-10T17:16:52.864Z,31.85
2023-05-10T17:19:20.958Z,31.93
2023-05-10T17:21:49.287Z,32.00
2023-05-10T17:24:17.238Z,32.03
2023-05-10T17:26:45.794Z,32.20
2023-05-10T17:29:16.637Z,32.38
2023-05-10T17:31:44.600Z,32.48
2023-05-10T17:34:12.586Z,32.66
2023-05-10T17:36:40.537Z,32.97
2023-05-10T17:39:08.427Z,33.03
2023-05-10T17:41:36.268Z,33.19
2023-05-10T17:44:04.145Z,33.05
2023-05-10T17:46:32.994Z,33.34
2023-05-10T17:49:00.899Z,33.25
2023-05-10T17:51:28.987Z,33.45
2023-05-10T17:53:56.816Z,33.54
2023-05-10T17:56:24.896Z,33.66
2023-05-10T17:58:53.023Z,33.69
2023-05-10T18:01:21.234Z,33.74
2023-05-10T18:03:49.821Z,33.97
2023-05-10T18:06:17.904Z,34.09
2023-05-10T18:08:45.798Z,34.22
2023-05-10T18:11:13.818Z,34.34
2023-05-10T18:13:41.892Z,34.37
2023-05-10T18:16:12.894Z,34.60
2023-05-10T18:18:40.825Z,34.54
2023-05-10T18:21:08.747Z,34.58
2023-05-10T18:23:36.713Z,34.50
2023-05-10T18:26:04.751Z,34.64
2023-05-10T18:28:32.599Z,34.80
2023-05-10T18:31:00.600Z,34.83
2023-05-10T18:33:28.698Z,35.14
2023-05-10T18:35:57.006Z,35.09
2023-05-10T18:38:24.931Z,35.10
2023-05-10T18:40:52.859Z,35.28
2023-05-10T18:43:20.981Z,35.43
2023-05-10T18:45:50.213Z,35.42
2023-05-10T18:48:18.344Z,35.52
2023-05-10T18:50:46.206Z,35.66
2023-05-10T18:53:14.201Z,35.77
2023-05-10T18:55:44.206Z,35.96
2023-05-10T18:58:12.842Z,35.89
2023-05-10T19:00:41.066Z,36.07
2023-05-10T19:03:08.918Z,36.14
2023-05-10T19:05:36.815Z,36.23
2023-05-10T19:08:05.276Z,36.34
2023-05-10T19:10:33.162Z,36.40
2023-05-10T19:13:01.013Z,36.33
2023-05-10T19:15:28.872Z,36.41
2023-05-10T19:18:22.163Z,36.46
2023-05-10T19:20:50.120Z,36.52
2023-05-10T19:23:17.988Z,36.47
2023-05-10T19:25:47.052Z,36.46
2023-05-10T19:28:15.149Z,36.67
2023-05-10T19:30:43.021Z,36.52
2023-05-10T19:33:12.714Z,36.74
2023-05-10T19:35:40.818Z,36.90
2023-05-10T19:38:08.761Z,36.84
2023-05-10T19:40:36.923Z,36.90
2023-05-10T19:43:04.894Z,37.01
2023-05-10T19:45:38.985Z,36.88
2023-05-10T19:48:07.008Z,37.17
2023-05-10T19:50:34.871Z,37.17
2023-05-10T19:53:02.754Z,37.31
2023-05-10T19:55:32.225Z,37.17
2023-05-10T19:58:02.595Z,37.41
2023-05-10T20:00:31.638Z,37.38
2023-05-10T20:02:59.801Z,37.45
2023-05-10T20:05:27.710Z,37.48
2023-05-10T20:07:55.580Z,37.60
2023-05-10T20:10:25.731Z,37.54
2023-05-10T20:12:54.910Z,37.74
2023-05-10T20:15:23.711Z,37.69
2023-05-10T20:17:53.318Z,37.70
2023-05-10T20:20:22.099Z,37.73
2023-05-10T20:22:50.535Z,37.80
2023-05-10T20:25:19.290Z,37.80
2023-05-10T20:27:47.254Z,37.81
2023-05-10T20:30:15.605Z,37.83
2023-05-10T20:32:43.785Z,37.74
2023-05-10T20:35:12.020Z,37.79
2023-05-10T20:37:39.933Z,37.72
2023-05-10T20:40:08.642Z,37.73
2023-05-10T20:42:36.519Z,37.76
2023-05-10T20:45:04.856Z,37.70
2023-05-10T20:47:33.281Z,37.72
2023-05-10T20:50:01.162Z,37.72
2023-05-10T20:52:29.081Z,38.05
2023-05-10T20:54:56.955Z,38.00
2023-05-10T20:57:24.863Z,38.13
2023-05-10T20:59:53.019Z,38.09
2023-05-10T21:02:20.911Z,38.14
2023-05-10T21:04:48.821Z,38.22
2023-05-10T21:07:16.658Z,38.31
2023-05-10T21:09:44.557Z,38.10
2023-05-10T21:12:13.486Z,38.22
2023-05-10T21:14:43.089Z,38.24
2023-05-10T21:17:10.953Z,38.14
2023-05-10T21:19:38.850Z,38.30
2023-05-10T21:22:06.754Z,38.28
2023-05-10T21:24:35.232Z,38.33
2023-05-10T21:27:03.145Z,38.39
2023-05-10T21:29:31.023Z,38.37
2023-05-10T21:31:58.974Z,38.45
2023-05-10T21:34:26.943Z,38.42
2023-05-10T21:36:54.905Z,38.47
2023-05-10T21:39:22.775Z,38.53
2023-05-10T21:41:50.591Z,38.55
2023-05-10T21:44:18.581Z,38.54
2023-05-10T21:46:46.467Z,38.57
2023-05-10T21:49:14.366Z,38.76
2023-05-10T21:51:42.228Z,38.73
2023-05-10T21:54:10.076Z,38.81
2023-05-10T21:56:38.147Z,38.95
2023-05-10T21:59:06.353Z,38.97
2023-05-10T22:01:34.259Z,38.89
2023-05-10T22:04:02.270Z,39.03
2023-05-10T22:06:30.156Z,39.06
2023-05-10T22:08:58.163Z,39.15
2023-05-10T22:11:27.614Z,39.22
2023-05-10T22:13:55.580Z,39.11
2023-05-10T22:16:24.757Z,39.20
2023-05-10T22:18:54.575Z,39.24
2023-05-10T22:21:22.710Z,39.33
2023-05-10T22:23:50.542Z,39.28
2023-05-10T22:26:18.615Z,39.27
2023-05-10T22:28:46.486Z,39.27
2023-05-10T22:31:14.462Z,39.30
2023-05-10T22:33:42.533Z,39.28
2023-05-10T22:36:10.568Z,39.29
2023-05-10T22:38:38.487Z,39.42
2023-05-10T22:41:06.784Z,39.50
2023-05-10T22:43:34.722Z,39.45
2023-05-10T22:46:02.600Z,39.48
2023-05-10T22:48:34.225Z,39.60
2023-05-10T22:51:02.187Z,39.72
2023-05-10T22:53:30.309Z,39.66
2023-05-10T22:55:58.410Z,39.83
2023-05-10T22:58:26.969Z,39.83
2023-05-10T23:00:55.420Z,39.95
2023-05-10T23:03:23.381Z,39.99
2023-05-10T23:05:51.223Z,40.06
2023-05-10T23:08:19.063Z,40.14
2023-05-10T23:10:47.068Z,40.28
2023-05-10T23:13:14.893Z,40.39
2023-05-10T23:15:43.683Z,40.58
2023-05-10T23:18:12.960Z,40.68
2023-05-10T23:20:44.057Z,40.84
2023-05-10T23:23:11.983Z,40.89
2023-05-10T23:25:39.821Z,41.04
2023-05-10T23:28:07.849Z,41.01
2023-05-10T23:30:35.724Z,40.96
2023-05-10T23:33:03.658Z,41.04
2023-05-10T23:35:31.613Z,41.18
2023-05-10T23:37:59.579Z,41.06
2023-05-10T23:40:27.506Z,41.38
2023-05-10T23:42:55.472Z,41.48
2023-05-10T23:45:23.342Z,41.55
2023-05-10T23:47:51.283Z,41.85
2023-05-10T23:50:19.382Z,41.90
2023-05-10T23:52:47.600Z,41.89
2023-05-10T23:55:15.679Z,41.86
2023-05-10T23:57:43.709Z,41.97
